Time Latitude Longitude Accuracy (66% radius in meters) Altitude (meters) Speed (km/hour) Bearing (degrees) Battery (%) GPS flag
07:53:45 57.203770 60.118511 15.170000076294 321 0.93999999761581 130.5 48 1 delete
07:53:40 57.203799 60.118530 15.170000076294 323 1.3300000429153 247.69999694824 48 1 delete
07:53:35 57.203832 60.118672 15.170000076294 321 1.2400000095367 246.19999694824 48 1 delete
07:53:34 57.203841 60.118703 15.170000076294 321 1.4500000476837 247.30000305176 48 1 delete
07:53:27 57.203897 60.118838 15.170000076294 320 2.4200000762939 218 48 1 delete
07:53:24 57.203967 60.118950 15.170000076294 320 2.9500000476837 222.30000305176 48 1 delete
07:53:20 57.204051 60.119082 15.170000076294 321 2.2300000190735 215.39999389648 48 1 delete
07:53:16 57.204140 60.119193 15.170000076294 322 1.2400000095367 208.89999389648 48 1 delete
07:53:14 57.204176 60.119263 15.170000076294 322 1.8999999761581 243.80000305176 48 1 delete
07:53:12 57.204208 60.119342 16.687000274658 323 0 0 48 1 delete
07:53:08 57.204261 60.119487 15.170000076294 323 1.2400000095367 237.89999389648 48 1 delete
07:53:05 57.204308 60.119645 15.170000076294 322 1.2200000286102 242.5 48 1 delete
07:53:03 57.204366 60.119697 16.687000274658 323 1.25 204.60000610352 48 1 delete
07:53:00 57.204375 60.119786 15.170000076294 324 1.3400000333786 272.10000610352 48 1 delete
07:52:54 57.204423 60.119960 13.65299987793 324 1.9700000286102 269.29998779297 48 1 delete
07:52:52 57.204421 60.120017 13.65299987793 324 1.4900000095367 277.5 48 1 delete
07:52:42 57.204419 60.120038 4.5509996414185 325 0 0 48 1 delete
07:52:32 57.204433 60.120027 4.5509996414185 324 0 0 48 1 delete
07:52:21 57.204435 60.120027 4.5509996414185 324 0 0 48 1 delete
07:52:11 57.204440 60.120045 4.5509996414185 325 0 0 48 1 delete
07:52:00 57.204451 60.120076 4.5509996414185 324 0 0 48 1 delete
07:51:50 57.204443 60.120101 4.5509996414185 323 0 0 48 1 delete
07:51:39 57.204433 60.120110 4.5509996414185 323 0 0 48 1 delete
07:51:29 57.204423 60.120114 4.5509996414185 324 0 0 48 1 delete
07:51:19 57.204415 60.120112 4.5509996414185 324 0.36000001430511 312.5 48 1 delete
07:51:08 57.204417 60.120116 4.5509996414185 324 0.56000000238419 61.5 48 1 delete
07:50:57 57.204412 60.120127 4.5509996414185 323 0 0 48 1 delete
07:50:47 57.204425 60.120128 4.5509996414185 323 0.77999997138977 186.69999694824 48 1 delete
07:50:37 57.204466 60.120165 4.5509996414185 324 0 0 48 1 delete
07:50:26 57.204467 60.120164 4.5509996414185 324 0 0 48 1 delete
07:50:16 57.204467 60.120164 4.5509996414185 324 0 0 48 1 delete
07:50:05 57.204467 60.120165 4.5509996414185 324 0 0 48 1 delete
07:49:55 57.204466 60.120165 4.5509996414185 324 0 0 48 1 delete
07:49:44 57.204467 60.120164 7.585000038147 324 0 0 48 1 delete
07:49:33 57.204467 60.120164 7.585000038147 324 0 0 48 1 delete
07:49:23 57.204475 60.120153 6.0679998397827 326 0 0 48 1 delete
07:49:14 57.204495 60.120232 4.5509996414185 327 3.460000038147 272.89999389648 48 1 delete
07:49:13 57.204495 60.120287 4.5509996414185 328 3.5999999046326 270 48 1 delete
07:49:10 57.204501 60.120444 4.5509996414185 328 3.6300001144409 263 48 1 delete
07:49:07 57.204512 60.120650 4.5509996414185 328 3.75 227.10000610352 48 1 delete
07:49:02 57.204594 60.120817 4.5509996414185 328 1.8400000333786 210.69999694824 48 1 delete
07:48:52 57.204601 60.120830 4.5509996414185 328 0 0 48 1 delete
07:48:41 57.204607 60.120830 4.5509996414185 328 0 0 48 1 delete
07:48:30 57.204607 60.120830 4.5509996414185 328 0 0 48 1 delete
07:48:19 57.204604 60.120827 4.5509996414185 328 0 0 48 1 delete
07:48:09 57.204616 60.120823 4.5509996414185 328 0 0 48 1 delete
07:47:58 57.204637 60.120811 4.5509996414185 328 0 0 48 1 delete
07:47:47 57.204646 60.120814 4.5509996414185 328 0 0 48 1 delete
07:47:37 57.204647 60.120815 4.5509996414185 328 0 0 48 1 delete
07:47:26 57.204652 60.120804 6.0679998397827 328 0 0 48 1 delete